createdAt,value
2018-01-26T00:00:43.622Z,5.90
2018-01-26T00:03:11.639Z,5.90
2018-01-26T00:05:40.337Z,5.90
2018-01-26T00:08:06.890Z,5.90
2018-01-26T00:10:40.468Z,5.90
2018-01-26T00:13:07.026Z,6.10
2018-01-26T00:15:33.515Z,6.00
2018-01-26T00:18:00.041Z,6.00
2018-01-26T00:20:26.905Z,6.10
2018-01-26T00:22:53.478Z,6.10
2018-01-26T00:25:20.450Z,6.20
2018-01-26T00:27:47.028Z,6.10
2018-01-26T00:30:13.565Z,6.10
2018-01-26T00:32:40.469Z,6.10
2018-01-26T00:35:07.722Z,6.20
2018-01-26T00:37:34.285Z,6.20
2018-01-26T00:40:02.198Z,6.10
2018-01-26T00:42:28.794Z,6.10
2018-01-26T00:44:56.730Z,6.10
2018-01-26T00:47:24.338Z,6.00
2018-01-26T00:49:50.859Z,5.90
2018-01-26T00:52:17.394Z,6.00
2018-01-26T00:54:44.175Z,6.00
2018-01-26T00:57:11.710Z,6.00
2018-01-26T00:59:38.331Z,5.90
2018-01-26T01:02:05.044Z,5.80
2018-01-26T01:04:31.944Z,5.80
2018-01-26T01:06:58.417Z,5.70
2018-01-26T01:09:25.189Z,6.20
2018-01-26T01:11:52.571Z,5.70
2018-01-26T01:14:19.174Z,5.60
2018-01-26T01:16:46.598Z,5.60
2018-01-26T01:19:13.142Z,5.60
2018-01-26T01:21:39.781Z,5.60
2018-01-26T01:24:07.300Z,5.60
2018-01-26T01:26:33.809Z,5.60
2018-01-26T01:29:01.395Z,5.60
2018-01-26T01:31:29.386Z,5.60
2018-01-26T01:33:57.073Z,5.50
2018-01-26T01:38:53.672Z,5.80
2018-01-26T01:41:20.371Z,5.70
2018-01-26T01:43:47.720Z,5.70
2018-01-26T01:46:15.183Z,5.70
2018-01-26T01:51:24.893Z,5.90
2018-01-26T01:53:52.071Z,5.80
2018-01-26T01:56:19.538Z,5.80
2018-01-26T01:58:46.178Z,5.80
2018-01-26T02:01:12.687Z,5.70
2018-01-26T02:03:40.218Z,5.70
2018-01-26T02:08:37.637Z,5.70
2018-01-26T02:11:04.092Z,5.70
2018-01-26T02:13:31.569Z,5.70
2018-01-26T02:15:59.663Z,5.70
2018-01-26T02:18:26.113Z,5.80
2018-01-26T02:20:53.349Z,5.90
2018-01-26T02:23:19.836Z,6.30
2018-01-26T02:25:46.749Z,5.70
2018-01-26T02:28:13.280Z,6.00
2018-01-26T02:30:39.767Z,5.90
2018-01-26T02:33:06.250Z,6.00
2018-01-26T02:35:33.528Z,6.00
2018-01-26T02:38:00.001Z,6.00
2018-01-26T02:40:26.557Z,5.90
2018-01-26T02:42:53.093Z,5.90
2018-01-26T02:45:19.531Z,5.80
2018-01-26T02:47:45.994Z,5.80
2018-01-26T02:50:12.859Z,5.90
2018-01-26T02:52:40.480Z,5.80
2018-01-26T02:55:07.773Z,5.80
2018-01-26T02:57:34.270Z,5.80
2018-01-26T03:00:00.814Z,5.70
2018-01-26T03:02:27.385Z,5.70
2018-01-26T03:04:55.508Z,5.60
2018-01-26T03:07:22.434Z,5.50
2018-01-26T03:12:18.201Z,5.70
2018-01-26T03:14:44.722Z,5.70
2018-01-26T03:17:11.996Z,5.70
2018-01-26T03:19:39.518Z,5.60
2018-01-26T03:22:06.223Z,5.60
2018-01-26T03:24:32.732Z,5.70
2018-01-26T03:26:59.393Z,5.50
2018-01-26T03:29:25.885Z,5.60
2018-01-26T03:34:26.117Z,5.70
2018-01-26T03:36:52.801Z,5.60
2018-01-26T03:39:19.412Z,5.70
2018-01-26T03:41:46.411Z,5.70
2018-01-26T03:44:12.915Z,5.60
2018-01-26T03:46:39.707Z,5.60
2018-01-26T03:49:07.098Z,5.60
2018-01-26T03:51:33.609Z,5.60
2018-01-26T03:54:00.088Z,5.60
2018-01-26T03:56:26.717Z,5.60
2018-01-26T03:58:53.564Z,5.60
2018-01-26T04:01:20.082Z,5.40
2018-01-26T04:03:47.861Z,5.60
2018-01-26T04:06:14.401Z,5.60
2018-01-26T04:08:40.962Z,5.80
2018-01-26T04:11:07.535Z,5.70
2018-01-26T04:13:34.135Z,5.70
2018-01-26T04:16:00.778Z,5.60
2018-01-26T04:18:28.038Z,5.60
2018-01-26T04:20:54.972Z,6.20
2018-01-26T04:23:21.460Z,5.60
2018-01-26T04:25:48.181Z,5.70
2018-01-26T04:28:15.505Z,5.60
2018-01-26T04:33:10.308Z,5.60
2018-01-26T04:35:37.259Z,5.80
2018-01-26T04:38:04.822Z,2.60
2018-01-26T04:40:31.370Z,5.70
2018-01-26T04:42:58.786Z,5.60
2018-01-26T04:48:23.641Z,5.60
2018-01-26T04:50:50.351Z,5.70
2018-01-26T04:53:17.911Z,5.70
2018-01-26T04:55:44.570Z,5.70
2018-01-26T04:58:11.153Z,5.70
2018-01-26T05:00:38.820Z,5.70
2018-01-26T05:03:05.358Z,5.80
2018-01-26T05:05:32.378Z,5.70
2018-01-26T05:07:59.732Z,5.70
2018-01-26T05:10:26.317Z,5.60
2018-01-26T05:12:53.256Z,5.70
2018-01-26T05:15:20.536Z,5.70
2018-01-26T05:17:47.044Z,5.70
2018-01-26T05:20:13.632Z,5.70
2018-01-26T05:22:40.267Z,5.50
2018-01-26T05:25:06.821Z,5.60
2018-01-26T05:27:34.517Z,5.50
2018-01-26T05:30:01.873Z,5.50
2018-01-26T05:32:29.128Z,5.40
2018-01-26T05:34:57.982Z,5.50
2018-01-26T05:37:24.628Z,5.50
2018-01-26T05:39:51.293Z,5.40
2018-01-26T05:42:18.021Z,5.40
2018-01-26T05:44:45.156Z,5.50
2018-01-26T05:47:12.030Z,5.50
2018-01-26T05:49:39.712Z,5.60
2018-01-26T05:52:06.292Z,5.60
2018-01-26T05:54:33.237Z,5.60
2018-01-26T05:57:01.111Z,5.40
2018-01-26T05:59:27.637Z,5.40
2018-01-26T06:01:54.275Z,5.30
2018-01-26T06:04:21.793Z,5.50
2018-01-26T06:06:48.534Z,5.50
2018-01-26T06:09:15.892Z,5.40
2018-01-26T06:11:48.823Z,5.50
2018-01-26T06:14:17.330Z,5.50
2018-01-26T06:16:44.109Z,5.60
2018-01-26T06:19:10.828Z,5.50
2018-01-26T06:21:37.913Z,5.40
2018-01-26T06:24:04.510Z,5.30
2018-01-26T06:26:31.370Z,5.40
2018-01-26T06:28:57.924Z,5.40
2018-01-26T06:31:25.915Z,5.30
2018-01-26T06:33:53.012Z,5.30
2018-01-26T06:36:19.645Z,5.20
2018-01-26T06:38:46.637Z,5.00
2018-01-26T06:41:16.010Z,5.10
2018-01-26T06:43:43.055Z,5.20
2018-01-26T06:46:10.036Z,5.20
2018-01-26T06:48:37.321Z,5.30
2018-01-26T06:51:03.807Z,5.30
2018-01-26T06:53:30.305Z,5.30
2018-01-26T06:55:56.813Z,5.30
2018-01-26T06:58:23.396Z,5.60
2018-01-26T07:00:50.078Z,5.20
2018-01-26T07:03:17.821Z,4.90
2018-01-26T07:05:44.546Z,5.20
2018-01-26T07:08:11.056Z,5.30
2018-01-26T07:10:37.703Z,5.20
2018-01-26T07:13:04.324Z,5.30
2018-01-26T07:15:31.641Z,5.30
2018-01-26T07:17:58.272Z,5.30
2018-01-26T07:20:24.917Z,5.20
2018-01-26T07:22:51.895Z,5.10
2018-01-26T07:25:18.583Z,4.90
2018-01-26T07:27:45.500Z,5.30
2018-01-26T07:30:12.763Z,5.20
2018-01-26T07:32:39.741Z,5.00
2018-01-26T07:35:06.273Z,5.20
2018-01-26T07:37:32.921Z,5.10
2018-01-26T07:39:59.660Z,5.10
2018-01-26T07:42:27.575Z,4.90
2018-01-26T07:44:54.858Z,5.10
2018-01-26T07:47:21.445Z,5.10
2018-01-26T07:49:48.742Z,5.10
2018-01-26T07:52:15.928Z,5.20
2018-01-26T07:54:42.494Z,5.50
2018-01-26T07:57:11.115Z,5.90
2018-01-26T07:59:38.939Z,5.30
2018-01-26T08:02:05.473Z,5.30
2018-01-26T08:04:32.357Z,5.20
2018-01-26T08:07:03.757Z,5.30
2018-01-26T08:09:41.440Z,5.30
2018-01-26T08:14:38.799Z,5.40
2018-01-26T08:17:05.321Z,5.40
2018-01-26T08:19:31.830Z,5.50
2018-01-26T08:21:59.116Z,5.50
2018-01-26T08:24:27.786Z,5.40
2018-01-26T08:26:55.576Z,5.40
2018-01-26T08:29:22.503Z,5.60
2018-01-26T08:31:49.126Z,5.50
2018-01-26T08:34:16.101Z,5.50
2018-01-26T08:36:42.572Z,5.50
2018-01-26T08:39:09.965Z,5.50
2018-01-26T08:41:36.991Z,5.60
2018-01-26T08:44:03.600Z,5.50
2018-01-26T08:46:30.550Z,5.30
2018-01-26T08:48:58.186Z,5.60
2018-01-26T08:51:24.673Z,5.60
2018-01-26T08:53:51.846Z,5.50
2018-01-26T08:56:19.266Z,5.60
2018-01-26T08:58:45.853Z,5.60
2018-01-26T09:01:14.787Z,5.80
2018-01-26T09:03:41.720Z,5.90
2018-01-26T09:06:08.359Z,6.10
2018-01-26T09:11:03.657Z,6.30
2018-01-26T09:13:30.588Z,6.60
2018-01-26T09:15:57.457Z,6.60
2018-01-26T09:18:25.783Z,6.50
2018-01-26T09:20:52.251Z,6.60
2018-01-26T09:23:19.971Z,6.60
2018-01-26T09:28:14.697Z,6.70
2018-01-26T09:30:42.469Z,6.80
2018-01-26T09:33:09.341Z,6.70
2018-01-26T09:35:36.614Z,6.80
2018-01-26T09:38:04.334Z,6.90
2018-01-26T09:40:31.582Z,7.00
2018-01-26T09:42:58.073Z,7.20
2018-01-26T09:45:27.039Z,7.20
2018-01-26T09:47:53.618Z,7.20
2018-01-26T09:50:20.473Z,7.30
2018-01-26T09:52:48.488Z,7.40
2018-01-26T09:55:16.025Z,7.40
2018-01-26T09:57:42.918Z,7.30
2018-01-26T10:00:10.595Z,7.30
2018-01-26T10:02:38.136Z,7.30
2018-01-26T10:05:04.633Z,7.40
2018-01-26T10:07:31.901Z,7.40
2018-01-26T10:09:58.844Z,7.40
2018-01-26T10:12:25.381Z,5.70
2018-01-26T10:14:51.942Z,7.50
2018-01-26T10:17:19.637Z,7.50
2018-01-26T10:19:46.141Z,7.50
2018-01-26T10:22:13.831Z,7.80
2018-01-26T10:24:41.298Z,7.80
2018-01-26T10:27:07.833Z,7.90
2018-01-26T10:29:34.677Z,8.00
2018-01-26T10:32:01.609Z,8.00
2018-01-26T10:34:28.509Z,8.00
2018-01-26T10:36:55.880Z,8.00
2018-01-26T10:39:22.949Z,8.10
2018-01-26T10:44:17.583Z,8.10
2018-01-26T10:46:45.649Z,8.10
2018-01-26T10:51:40.385Z,8.30
2018-01-26T10:54:06.841Z,8.40
2018-01-26T10:56:33.506Z,8.60
2018-01-26T10:59:01.065Z,8.70
2018-01-26T11:01:27.657Z,8.90
2018-01-26T11:03:54.947Z,9.10
2018-01-26T11:06:21.924Z,9.40
2018-01-26T11:08:48.864Z,9.40
2018-01-26T11:11:15.858Z,9.80
2018-01-26T11:13:43.362Z,10.00
2018-01-26T11:16:10.619Z,10.00
2018-01-26T11:18:38.033Z,10.00
2018-01-26T11:21:04.635Z,9.80
2018-01-26T11:23:31.127Z,9.70
2018-01-26T11:25:57.681Z,9.70
2018-01-26T11:28:25.245Z,9.70
2018-01-26T11:30:51.829Z,9.50
2018-01-26T11:33:19.288Z,9.20
2018-01-26T11:35:45.979Z,9.10
2018-01-26T11:38:12.844Z,8.90
2018-01-26T11:40:39.734Z,8.80
2018-01-26T11:43:06.710Z,8.60
2018-01-26T11:45:33.794Z,8.40
2018-01-26T11:48:02.029Z,8.40
2018-01-26T11:52:57.792Z,8.40
2018-01-26T11:55:25.928Z,8.30
2018-01-26T11:57:53.613Z,8.10
2018-01-26T12:00:20.618Z,7.90
2018-01-26T12:02:48.108Z,7.70
2018-01-26T12:05:15.379Z,7.70
2018-01-26T12:07:42.557Z,7.80
2018-01-26T12:10:09.511Z,8.00
2018-01-26T12:12:36.197Z,8.20
2018-01-26T12:15:03.082Z,8.20
2018-01-26T12:17:30.808Z,8.20
2018-01-26T12:19:58.294Z,8.30
2018-01-26T12:22:26.877Z,8.30
2018-01-26T12:24:54.572Z,8.30
2018-01-26T12:27:21.404Z,8.20
2018-01-26T12:29:47.986Z,8.30
2018-01-26T12:32:15.857Z,8.30
2018-01-26T12:34:43.637Z,8.40
2018-01-26T12:37:10.158Z,8.60
2018-01-26T12:39:36.743Z,8.80
2018-01-26T12:42:04.202Z,8.90
2018-01-26T12:44:31.688Z,8.90
2018-01-26T12:46:59.824Z,9.00
2018-01-26T12:49:26.706Z,9.00
2018-01-26T12:51:54.929Z,9.00
2018-01-26T12:54:22.569Z,9.10
2018-01-26T12:56:50.787Z,9.00
2018-01-26T12:59:18.114Z,9.00
2018-01-26T13:01:45.211Z,9.00
2018-01-26T13:04:13.024Z,8.90
2018-01-26T13:06:40.105Z,8.80
2018-01-26T13:09:07.833Z,8.60
2018-01-26T13:11:34.578Z,8.50
2018-01-26T13:14:04.169Z,8.30
2018-01-26T13:16:32.576Z,8.30
2018-01-26T13:21:28.390Z,8.40
2018-01-26T13:23:56.502Z,8.40
2018-01-26T13:26:23.094Z,8.40
2018-01-26T13:28:50.015Z,8.30
2018-01-26T13:31:17.370Z,8.20
2018-01-26T13:33:44.503Z,8.10
2018-01-26T13:36:10.991Z,8.40
2018-01-26T13:38:37.740Z,8.00
2018-01-26T13:41:05.019Z,7.90
2018-01-26T13:43:31.700Z,7.80
2018-01-26T13:45:59.415Z,7.70
2018-01-26T13:48:27.331Z,7.60
2018-01-26T13:50:56.106Z,7.60
2018-01-26T13:53:23.993Z,7.50
2018-01-26T13:55:51.787Z,7.50
2018-01-26T13:58:18.750Z,7.40
2018-01-26T14:00:45.797Z,7.40
2018-01-26T14:03:16.141Z,7.40
2018-01-26T14:08:11.241Z,7.30
2018-01-26T14:10:38.718Z,7.30
2018-01-26T14:13:05.306Z,7.30
2018-01-26T14:15:32.276Z,7.50
2018-01-26T14:20:27.478Z,7.20
2018-01-26T14:25:29.664Z,7.10
2018-01-26T14:30:25.030Z,6.30
2018-01-26T14:32:58.497Z,7.00
2018-01-26T14:35:25.052Z,7.00
2018-01-26T14:37:52.102Z,6.90
2018-01-26T14:40:20.229Z,6.80
2018-01-26T14:42:47.949Z,6.70
2018-01-26T14:47:43.658Z,6.30
2018-01-26T14:50:10.723Z,6.40
2018-01-26T14:52:37.626Z,6.30
2018-01-26T14:55:04.972Z,6.30
2018-01-26T14:57:32.422Z,6.40
2018-01-26T15:00:01.694Z,6.40
2018-01-26T15:02:29.000Z,6.50
2018-01-26T15:05:02.476Z,6.40
2018-01-26T15:07:29.562Z,6.40
2018-01-26T15:09:56.727Z,6.40
2018-01-26T15:12:24.134Z,6.40
2018-01-26T15:14:51.656Z,5.90
2018-01-26T15:19:46.784Z,6.30
2018-01-26T15:22:13.961Z,6.40
2018-01-26T15:24:42.074Z,6.30
2018-01-26T15:27:10.572Z,6.30
2018-01-26T15:29:38.086Z,6.80
2018-01-26T15:32:05.140Z,6.30
2018-01-26T15:34:32.259Z,7.00
2018-01-26T15:36:59.065Z,6.40
2018-01-26T15:39:26.160Z,6.90
2018-01-26T15:41:52.894Z,6.30
2018-01-26T15:46:48.534Z,6.10
2018-01-26T15:49:16.230Z,5.90
2018-01-26T15:51:44.381Z,5.90
2018-01-26T15:54:12.233Z,5.90
2018-01-26T15:56:39.004Z,5.70
2018-01-26T15:59:07.061Z,5.80
2018-01-26T16:01:33.689Z,5.90
2018-01-26T16:04:01.242Z,6.00
2018-01-26T16:06:28.348Z,5.70
2018-01-26T16:08:55.010Z,5.80
2018-01-26T16:11:21.925Z,5.70
2018-01-26T16:13:49.661Z,5.70
2018-01-26T16:16:22.590Z,5.70
2018-01-26T16:18:49.909Z,5.70
2018-01-26T16:23:45.554Z,5.80
2018-01-26T16:26:12.582Z,5.80
2018-01-26T16:31:07.896Z,5.70
2018-01-26T16:36:03.898Z,5.70
2018-01-26T16:38:31.502Z,5.70
2018-01-26T16:40:58.244Z,5.70
2018-01-26T16:43:24.772Z,5.70
2018-01-26T16:48:20.461Z,5.80
2018-01-26T16:50:47.707Z,5.70
2018-01-26T16:53:14.810Z,5.60
2018-01-26T16:55:42.347Z,5.60
2018-01-26T16:58:09.059Z,5.70
2018-01-26T17:00:36.745Z,5.60
2018-01-26T17:03:04.820Z,5.60
2018-01-26T17:05:37.109Z,5.50
2018-01-26T17:08:09.174Z,5.40
2018-01-26T17:10:38.212Z,5.40
2018-01-26T17:13:04.872Z,5.30
2018-01-26T17:15:31.517Z,5.30
2018-01-26T17:17:58.552Z,5.40
2018-01-26T17:20:25.657Z,5.30
2018-01-26T17:22:53.441Z,5.20
2018-01-26T17:25:20.938Z,5.20
2018-01-26T17:27:48.279Z,5.00
2018-01-26T17:32:43.402Z,5.00
2018-01-26T17:35:11.007Z,5.00
2018-01-26T17:37:39.737Z,4.90
2018-01-26T17:40:06.819Z,4.90
2018-01-26T17:42:33.389Z,4.80
2018-01-26T17:45:00.077Z,4.70
2018-01-26T17:47:26.579Z,4.70
2018-01-26T17:49:53.841Z,4.80
2018-01-26T17:52:21.212Z,4.80
2018-01-26T17:54:48.146Z,4.90
2018-01-26T17:57:16.245Z,4.80
2018-01-26T17:59:43.505Z,4.70
2018-01-26T18:02:11.366Z,4.80
2018-01-26T18:04:38.003Z,5.90
2018-01-26T18:07:04.583Z,4.80
2018-01-26T18:09:31.892Z,4.80
2018-01-26T18:11:58.532Z,4.80
2018-01-26T18:14:25.717Z,4.80
2018-01-26T18:16:52.801Z,4.80
2018-01-26T18:19:19.674Z,4.70
2018-01-26T18:24:15.030Z,4.60
2018-01-26T18:26:41.652Z,4.70
2018-01-26T18:29:09.152Z,4.70
2018-01-26T18:31:35.884Z,4.60
2018-01-26T18:34:02.861Z,4.70
2018-01-26T18:36:29.981Z,4.50
2018-01-26T18:38:57.007Z,4.70
2018-01-26T18:41:25.886Z,4.60
2018-01-26T18:43:54.626Z,4.60
2018-01-26T18:46:21.589Z,4.40
2018-01-26T18:51:19.768Z,4.60
2018-01-26T18:53:46.260Z,4.70
2018-01-26T18:56:12.878Z,4.70
2018-01-26T18:58:39.251Z,4.60
2018-01-26T19:01:05.664Z,4.70
2018-01-26T19:03:32.480Z,4.50
2018-01-26T19:06:00.697Z,4.50
2018-01-26T19:08:32.177Z,4.60
2018-01-26T19:11:00.722Z,4.60
2018-01-26T19:13:29.217Z,4.70
2018-01-26T19:16:00.232Z,4.80
2018-01-26T19:18:28.427Z,4.80
2018-01-26T19:20:56.682Z,4.70
2018-01-26T19:23:23.584Z,4.70
2018-01-26T19:25:52.755Z,4.60
2018-01-26T19:28:20.182Z,4.70
2018-01-26T19:30:47.133Z,4.80
2018-01-26T19:33:14.012Z,4.80
2018-01-26T19:35:40.522Z,4.80
2018-01-26T19:38:07.044Z,4.80
2018-01-26T19:40:34.097Z,4.70
2018-01-26T19:43:01.101Z,4.70
2018-01-26T19:45:30.377Z,4.70
2018-01-26T19:47:56.970Z,4.70
2018-01-26T19:50:23.890Z,4.60
2018-01-26T19:52:50.429Z,4.50
2018-01-26T19:55:18.216Z,4.50
2018-01-26T19:57:44.543Z,4.60
2018-01-26T20:00:13.197Z,4.60
2018-01-26T20:02:41.913Z,4.60
2018-01-26T20:05:30.610Z,4.60
2018-01-26T20:08:00.592Z,4.00
2018-01-26T20:10:27.848Z,4.70
2018-01-26T20:15:59.112Z,4.80
2018-01-26T20:25:55.494Z,5.00
2018-01-26T20:28:23.890Z,5.10
2018-01-26T20:30:51.610Z,5.10
2018-01-26T20:33:20.480Z,5.00
2018-01-26T20:35:47.192Z,5.00
2018-01-26T20:38:14.921Z,5.10
2018-01-26T20:40:42.670Z,5.00
2018-01-26T20:43:10.797Z,5.00
2018-01-26T20:45:40.122Z,5.00
2018-01-26T20:48:08.186Z,5.00
2018-01-26T20:50:35.100Z,5.00
2018-01-26T20:53:03.438Z,5.00
2018-01-26T20:55:32.169Z,4.90
2018-01-26T20:58:04.215Z,4.90
2018-01-26T21:00:30.827Z,4.90
2018-01-26T21:05:26.258Z,4.90
2018-01-26T21:07:53.884Z,4.80
2018-01-26T21:10:23.934Z,4.80
2018-01-26T21:12:52.443Z,4.90
2018-01-26T21:15:22.389Z,4.80
2018-01-26T21:17:50.506Z,4.80
2018-01-26T21:20:20.624Z,5.20
2018-01-26T21:22:50.638Z,4.90
2018-01-26T21:25:18.304Z,4.80
2018-01-26T21:27:46.676Z,4.80
2018-01-26T21:30:13.618Z,4.70
2018-01-26T21:32:40.572Z,4.70
2018-01-26T21:35:07.822Z,4.70
2018-01-26T21:37:35.385Z,4.70
2018-01-26T21:40:02.827Z,4.70
2018-01-26T21:42:31.483Z,4.70
2018-01-26T21:44:58.397Z,4.70
2018-01-26T21:47:27.487Z,4.70
2018-01-26T21:49:55.374Z,4.70
2018-01-26T21:52:23.713Z,4.70
2018-01-26T21:54:51.686Z,4.60
2018-01-26T21:57:18.953Z,4.80
2018-01-26T21:59:46.381Z,4.80
2018-01-26T22:02:14.697Z,4.90
2018-01-26T22:04:49.079Z,4.90
2018-01-26T22:07:21.567Z,4.90
2018-01-26T22:09:48.640Z,4.90
2018-01-26T22:12:16.084Z,4.90
2018-01-26T22:14:43.176Z,4.80
2018-01-26T22:17:10.221Z,4.80
2018-01-26T22:19:37.096Z,4.70
2018-01-26T22:22:04.818Z,4.70
2018-01-26T22:24:34.164Z,4.60
2018-01-26T22:27:02.300Z,4.60
2018-01-26T22:29:28.809Z,5.00
2018-01-26T22:31:56.580Z,4.50
2018-01-26T22:34:23.039Z,4.50
2018-01-26T22:36:53.444Z,4.30
2018-01-26T22:39:20.880Z,4.50
2018-01-26T22:41:48.651Z,4.50
2018-01-26T22:44:16.322Z,4.50
2018-01-26T22:46:43.743Z,4.50
2018-01-26T22:49:11.640Z,4.40
2018-01-26T22:51:39.611Z,4.30
2018-01-26T22:54:07.486Z,4.40
2018-01-26T22:56:34.110Z,4.40
2018-01-26T22:59:01.331Z,4.50
2018-01-26T23:01:29.077Z,4.70
2018-01-26T23:06:26.301Z,4.80
2018-01-26T23:08:57.507Z,4.80
2018-01-26T23:11:25.315Z,5.00
2018-01-26T23:16:20.397Z,5.10
2018-01-26T23:18:51.502Z,5.20
2018-01-26T23:21:18.949Z,5.30
2018-01-26T23:23:46.620Z,5.30
2018-01-26T23:26:13.494Z,5.30
2018-01-26T23:28:40.507Z,5.30
2018-01-26T23:31:07.772Z,5.30
2018-01-26T23:33:34.730Z,5.30
2018-01-26T23:36:01.210Z,5.30
2018-01-26T23:38:28.496Z,5.30
2018-01-26T23:40:56.697Z,5.20
2018-01-26T23:43:24.418Z,5.30
2018-01-26T23:45:52.079Z,5.30
2018-01-26T23:48:20.699Z,5.20
2018-01-26T23:50:48.365Z,5.20
2018-01-26T23:55:44.075Z,4.90
2018-01-26T23:58:10.576Z,5.30
